Time;durP1;ratioP1;P1;durP2;ratioP2;P2;SDS_P1;SDS_P2;PMS_P1;PMS_P2;Temp;Humidity;BMP_temperature;BMP_pressure;BME280_temperature;BME280_humidity;BME280_pressure;Samples;Min_cycle;Max_cycle;Signal;HPM_P1;HPM_P2
2024/01/09 00:01:41;;;;;;;1.05;1.05;;;;;;;;;;6293660;28;20024;-74
2024/01/09 00:04:42;;;;;;;0.80;0.80;;;;;;;;;;6318440;28;20031;-72
2024/01/09 00:07:42;;;;;;;0.80;0.80;;;;;;;;;;6317254;28;20515;-71
2024/01/09 00:10:42;;;;;;;0.80;0.80;;;;;;;;;;6315392;28;20074;-71
2024/01/09 00:13:42;;;;;;;0.90;0.90;;;;;;;;;;6293057;28;20024;-72
2024/01/09 00:16:42;;;;;;;0.88;0.88;;;;;;;;;;6300022;28;20004;-71
2024/01/09 00:19:43;;;;;;;0.70;0.70;;;;;;;;;;6308142;28;20497;-71
2024/01/09 00:22:43;;;;;;;1.10;1.10;;;;;;;;;;6318656;28;20016;-71
2024/01/09 00:25:43;;;;;;;0.90;0.90;;;;;;;;;;6310632;28;20266;-74
2024/01/09 00:28:43;;;;;;;0.90;0.90;;;;;;;;;;6303562;28;20032;-75
2024/01/09 00:31:44;;;;;;;0.73;0.73;;;;;;;;;;6314328;28;20538;-75
2024/01/09 00:34:44;;;;;;;0.80;0.80;;;;;;;;;;6310913;28;20281;-75
2024/01/09 00:37:44;;;;;;;0.70;0.70;;;;;;;;;;6315666;28;20022;-74
2024/01/09 00:40:45;;;;;;;0.70;0.70;;;;;;;;;;6318074;28;20149;-75
2024/01/09 00:43:45;;;;;;;0.80;0.80;;;;;;;;;;6311548;28;20028;-75
2024/01/09 00:46:45;;;;;;;0.60;0.60;;;;;;;;;;6311706;28;20421;-75
2024/01/09 00:49:46;;;;;;;0.60;0.60;;;;;;;;;;6311002;28;20025;-75
2024/01/09 00:52:46;;;;;;;;;;;;;;;;;;6289098;28;20024;-75
2024/01/09 00:55:46;;;;;;;0.57;0.57;;;;;;;;;;6310164;28;19912;-74
2024/01/09 00:58:46;;;;;;;;;;;;;;;;;;6297811;28;20062;-74
2024/01/09 01:01:48;;;;;;;0.80;0.80;;;;;;;;;;6307411;28;19912;-75
2024/01/09 01:04:48;;;;;;;0.73;0.73;;;;;;;;;;6310521;28;20012;-75
2024/01/09 01:07:48;;;;;;;;;;;;;;;;;;6310774;28;21054;-75
2024/01/09 01:10:48;;;;;;;0.70;0.70;;;;;;;;;;6319591;28;19904;-75
2024/01/09 01:13:48;;;;;;;;;;;;;;;;;;6307313;28;20482;-75
2024/01/09 01:16:48;;;;;;;0.80;0.80;;;;;;;;;;6306588;28;19905;-75
2024/01/09 01:19:48;;;;;;;;;;;;;;;;;;6307773;28;20020;-75
2024/01/09 01:22:49;;;;;;;1.00;1.00;;;;;;;;;;6300981;28;19911;-75
2024/01/09 01:25:49;;;;;;;;;;;;;;;;;;6302877;28;20498;-74
2024/01/09 01:28:49;;;;;;;0.90;0.90;;;;;;;;;;6307196;28;20337;-75
2024/01/09 01:31:49;;;;;;;;;;;;;;;;;;6302826;28;20024;-75
2024/01/09 01:34:49;;;;;;;1.00;1.00;;;;;;;;;;6315829;28;19912;-75
2024/01/09 01:37:51;;;;;;;;;;;;;;;;;;6300112;28;20019;-75
2024/01/09 01:40:51;;;;;;;1.00;1.00;;;;;;;;;;6313206;28;19908;-75
2024/01/09 01:43:51;;;;;;;;;;;;;;;;;;6306810;28;20035;-72
2024/01/09 01:46:52;;;;;;;1.00;1.00;;;;;;;;;;6288227;28;19958;-71
2024/01/09 01:49:52;;;;;;;0.90;0.90;;;;;;;;;;6296393;28;20262;-71
2024/01/09 01:52:52;;;;;;;0.80;0.80;;;;;;;;;;6308267;28;20109;-71
2024/01/09 01:55:53;;;;;;;;;;;;;;;;;;6313818;28;20048;-71
2024/01/09 01:58:53;;;;;;;0.93;0.93;;;;;;;;;;6303575;28;19966;-72
2024/01/09 02:01:53;;;;;;;;;;;;;;;;;;6313524;28;20070;-71
2024/01/09 02:04:53;;;;;;;0.70;0.70;;;;;;;;;;6302465;28;19915;-71
2024/01/09 02:07:54;;;;;;;;;;;;;;;;;;6287857;28;20111;-71
2024/01/09 02:10:55;;;;;;;0.90;0.90;;;;;;;;;;6311752;28;19968;-71
2024/01/09 02:13:55;;;;;;;;;;;;;;;;;;6313127;28;20028;-71
2024/01/09 02:16:55;;;;;;;0.90;0.90;;;;;;;;;;6308888;28;19948;-71
2024/01/09 02:19:56;;;;;;;;;;;;;;;;;;6316027;28;20030;-72
2024/01/09 02:22:56;;;;;;;0.80;0.80;;;;;;;;;;6315797;28;19918;-72
2024/01/09 02:25:56;;;;;;;;;;;;;;;;;;6311235;28;20495;-71
2024/01/09 02:28:58;;;;;;;0.85;0.85;;;;;;;;;;6304449;28;20317;-71
2024/01/09 02:32:00;;;;;;;0.93;0.93;;;;;;;;;;6291160;28;20473;-71
2024/01/09 02:35:00;;;;;;;;;;;;;;;;;;6302061;28;20038;-71
2024/01/09 02:38:00;;;;;;;1.00;1.00;;;;;;;;;;6296798;28;19909;-71
2024/01/09 02:41:00;;;;;;;;;;;;;;;;;;6308945;28;20020;-72
2024/01/09 02:44:00;;;;;;;0.80;0.80;;;;;;;;;;6314468;28;19934;-71
2024/01/09 02:47:01;;;;;;;;;;;;;;;;;;6308270;28;20028;-71
2024/01/09 02:50:01;;;;;;;0.88;0.88;;;;;;;;;;6308831;28;19919;-71
2024/01/09 02:53:01;;;;;;;;;;;;;;;;;;6309829;28;20336;-71
2024/01/09 02:56:01;;;;;;;0.90;0.90;;;;;;;;;;6308855;28;19919;-71
2024/01/09 02:59:01;;;;;;;;;;;;;;;;;;6315253;28;20067;-72
2024/01/09 03:02:02;;;;;;;0.50;0.50;;;;;;;;;;6308814;28;20003;-71
2024/01/09 03:05:02;;;;;;;;;;;;;;;;;;6317997;28;20068;-71
2024/01/09 03:08:03;;;;;;;0.67;0.67;;;;;;;;;;6316302;28;20278;-71
2024/01/09 03:11:03;;;;;;;;;;;;;;;;;;6315498;28;20052;-71
2024/01/09 03:14:03;;;;;;;0.80;0.80;;;;;;;;;;6302592;28;20443;-75
2024/01/09 03:17:04;;;;;;;;;;;;;;;;;;6309952;28;20043;-75
2024/01/09 03:20:05;;;;;;;0.98;0.98;;;;;;;;;;6306252;28;19915;-75
2024/01/09 03:23:06;;;;;;;0.93;0.93;;;;;;;;;;6315173;28;20020;-75
2024/01/09 03:26:06;;;;;;;;;;;;;;;;;;6307489;28;20461;-76
2024/01/09 03:29:06;;;;;;;0.68;0.68;;;;;;;;;;6302210;28;19908;-75
2024/01/09 03:32:06;;;;;;;;;;;;;;;;;;6318907;28;20063;-75
2024/01/09 03:35:06;;;;;;;0.50;0.50;;;;;;;;;;6305818;28;19923;-75
2024/01/09 03:38:07;;;;;;;;;;;;;;;;;;6316690;28;20040;-75
2024/01/09 03:41:07;;;;;;;0.70;0.70;;;;;;;;;;6308043;28;19904;-75
2024/01/09 03:44:07;;;;;;;;;;;;;;;;;;6314171;28;20043;-75
2024/01/09 03:47:07;;;;;;;1.00;1.00;;;;;;;;;;6315353;28;20343;-75
2024/01/09 03:50:07;;;;;;;;;;;;;;;;;;6279134;28;20020;-76
2024/01/09 03:53:07;;;;;;;0.88;0.88;;;;;;;;;;6299670;28;19916;-75
2024/01/09 03:56:08;;;;;;;;;;;;;;;;;;6310482;28;20132;-71
2024/01/09 03:59:08;;;;;;;0.90;0.90;;;;;;;;;;6287979;28;19920;-71
2024/01/09 04:02:08;;;;;;;;;;;;;;;;;;6294287;28;20024;-71
2024/01/09 04:05:08;;;;;;;1.00;1.00;;;;;;;;;;6299783;28;20311;-75
2024/01/09 04:08:09;;;;;;;;;;;;;;;;;;6316936;28;20024;-76
2024/01/09 04:11:10;;;;;;;0.90;0.90;;;;;;;;;;6313805;28;19915;-76
2024/01/09 04:14:10;;;;;;;;;;;;;;;;;;6304496;28;20114;-75
2024/01/09 04:17:10;;;;;;;0.82;0.82;;;;;;;;;;6310631;28;19918;-76
2024/01/09 04:20:11;;;;;;;0.98;0.98;;;;;;;;;;6291771;28;20074;-76
2024/01/09 04:23:11;;;;;;;;;;;;;;;;;;6309593;28;20056;-77
2024/01/09 04:26:11;;;;;;;1.10;1.10;;;;;;;;;;6308178;28;20123;-76
2024/01/09 04:29:11;;;;;;;0.98;0.98;;;;;;;;;;6316811;28;20031;-77
2024/01/09 04:32:12;;;;;;;;;;;;;;;;;;6317820;28;20047;-77
2024/01/09 04:35:12;;;;;;;0.98;0.98;;;;;;;;;;6285873;28;19959;-76
2024/01/09 04:38:12;;;;;;;0.50;0.50;;;;;;;;;;6308494;28;20013;-75
2024/01/09 04:41:12;;;;;;;;;;;;;;;;;;6310796;28;20115;-75
2024/01/09 04:44:12;;;;;;;0.90;0.90;;;;;;;;;;6312453;28;19916;-75
2024/01/09 04:47:15;;;;;;;0.90;0.90;;;;;;;;;;6315760;28;20016;-75
2024/01/09 04:50:15;;;;;;;0.73;0.73;;;;;;;;;;6306791;28;20020;-75
2024/01/09 04:53:16;;;;;;;0.73;0.73;;;;;;;;;;6316985;28;20027;-75
2024/01/09 04:56:17;;;;;;;0.77;0.77;;;;;;;;;;6303068;28;20024;-75
2024/01/09 04:59:17;;;;;;;0.98;0.98;;;;;;;;;;6315681;28;20020;-75
2024/01/09 05:02:17;;;;;;;;;;;;;;;;;;6318242;28;20027;-75
2024/01/09 05:05:17;;;;;;;0.80;0.80;;;;;;;;;;6311179;28;19914;-75
2024/01/09 05:08:17;;;;;;;0.90;0.90;;;;;;;;;;6304106;28;20024;-75
2024/01/09 05:11:18;;;;;;;;;;;;;;;;;;6317591;28;20111;-75
2024/01/09 05:14:18;;;;;;;1.02;1.02;;;;;;;;;;6306703;28;20282;-75
2024/01/09 05:17:18;;;;;;;;;;;;;;;;;;6306069;28;20020;-75
2024/01/09 05:20:18;;;;;;;1.00;1.00;;;;;;;;;;6296197;28;20188;-75
2024/01/09 05:23:18;;;;;;;0.93;0.93;;;;;;;;;;6290103;28;20024;-75
2024/01/09 05:26:19;;;;;;;0.80;0.80;;;;;;;;;;6304510;28;20052;-72
2024/01/09 05:29:19;;;;;;;;;;;;;;;;;;6303286;28;20107;-71
2024/01/09 05:32:19;;;;;;;1.17;1.17;;;;;;;;;;6310979;28;20007;-71
2024/01/09 05:35:19;;;;;;;;;;;;;;;;;;6310212;28;20023;-75
2024/01/09 05:38:19;;;;;;;0.70;0.70;;;;;;;;;;6304478;28;19939;-76
2024/01/09 05:41:20;;;;;;;0.70;0.70;;;;;;;;;;6307085;28;20535;-75
2024/01/09 05:44:21;;;;;;;0.68;0.68;;;;;;;;;;6311969;28;20451;-75
2024/01/09 05:47:21;;;;;;;;;;;;;;;;;;6298261;28;20049;-75
2024/01/09 05:50:21;;;;;;;0.90;0.90;;;;;;;;;;6308563;28;19969;-75
2024/01/09 05:53:21;;;;;;;;;;;;;;;;;;6315077;28;20020;-75
2024/01/09 05:56:21;;;;;;;1.23;1.23;;;;;;;;;;6312899;28;19911;-75
2024/01/09 05:59:21;;;;;;;;;;;;;;;;;;6306454;28;20107;-75
2024/01/09 06:02:22;;;;;;;0.60;0.60;;;;;;;;;;6296678;28;20323;-75
2024/01/09 06:05:22;;;;;;;;;;;;;;;;;;6311857;28;20756;-75
2024/01/09 06:08:23;;;;;;;1.00;1.00;;;;;;;;;;6312168;28;20349;-75
2024/01/09 06:11:23;;;;;;;;;;;;;;;;;;6313261;28;20032;-75
2024/01/09 06:14:24;;;;;;;0.70;0.70;;;;;;;;;;6309774;28;19946;-75
2024/01/09 06:17:24;;;;;;;;;;;;;;;;;;6308196;28;20032;-75
2024/01/09 06:20:24;;;;;;;0.70;0.70;;;;;;;;;;6297730;28;19904;-74
2024/01/09 06:23:24;;;;;;;;;;;;;;;;;;6302311;28;20265;-76
2024/01/09 06:26:24;;;;;;;0.65;0.65;;;;;;;;;;6306867;28;20010;-75
2024/01/09 06:29:24;;;;;;;;;;;;;;;;;;6310651;28;20282;-74
2024/01/09 06:32:25;;;;;;;0.60;0.60;;;;;;;;;;6297232;28;20368;-75
2024/01/09 06:35:25;;;;;;;;;;;;;;;;;;6302574;28;20754;-74
2024/01/09 06:38:25;;;;;;;0.63;0.63;;;;;;;;;;6309402;28;19916;-74
2024/01/09 06:41:25;;;;;;;;;;;;;;;;;;6311646;28;20020;-74
2024/01/09 06:44:25;;;;;;;0.70;0.70;;;;;;;;;;6311241;28;19909;-70
2024/01/09 06:47:25;;;;;;;;;;;;;;;;;;6299772;28;20458;-69
2024/01/09 06:50:26;;;;;;;0.77;0.77;;;;;;;;;;6320475;28;20357;-70
2024/01/09 06:53:26;;;;;;;;;;;;;;;;;;6313892;28;20402;-70
2024/01/09 06:56:26;;;;;;;0.60;0.60;;;;;;;;;;6316720;28;19930;-70
2024/01/09 06:59:26;;;;;;;;;;;;;;;;;;6312928;28;20028;-70
2024/01/09 07:02:26;;;;;;;0.68;0.68;;;;;;;;;;6303322;28;20007;-70
2024/01/09 07:05:26;;;;;;;;;;;;;;;;;;6311280;28;20016;-74
2024/01/09 07:08:27;;;;;;;0.60;0.60;;;;;;;;;;6300166;28;19969;-74
2024/01/09 07:11:27;;;;;;;0.88;0.88;;;;;;;;;;6315640;28;20028;-74
2024/01/09 07:14:27;;;;;;;0.60;0.60;;;;;;;;;;6285868;28;20081;-74
2024/01/09 07:17:27;;;;;;;0.50;0.50;;;;;;;;;;6312508;28;20035;-74
2024/01/09 07:20:28;;;;;;;0.80;0.80;;;;;;;;;;6318597;28;20050;-74
2024/01/09 07:23:28;;;;;;;0.60;0.60;;;;;;;;;;6289221;28;20097;-74
2024/01/09 07:26:28;;;;;;;0.60;0.60;;;;;;;;;;6297977;28;20036;-74
2024/01/09 07:29:28;;;;;;;0.50;0.50;;;;;;;;;;6316307;28;20012;-74
2024/01/09 07:32:28;;;;;;;0.50;0.50;;;;;;;;;;6290514;28;20405;-74
2024/01/09 07:35:34;;;;;;;0.60;0.60;;;;;;;;;;6298257;28;20471;-74
2024/01/09 07:38:34;;;;;;;0.40;0.40;;;;;;;;;;6303714;28;20013;-74
2024/01/09 07:41:34;;;;;;;0.70;0.70;;;;;;;;;;6310108;28;20023;-74
2024/01/09 07:44:35;;;;;;;0.60;0.60;;;;;;;;;;6315753;28;20020;-74
2024/01/09 07:47:35;;;;;;;0.70;0.70;;;;;;;;;;6305173;28;20468;-74
2024/01/09 07:50:36;;;;;;;0.60;0.60;;;;;;;;;;6312744;28;20277;-74
2024/01/09 07:53:36;;;;;;;0.50;0.50;;;;;;;;;;6314355;28;20031;-74
2024/01/09 07:56:36;;;;;;;0.40;0.40;;;;;;;;;;6314542;28;20016;-74
2024/01/09 07:59:36;;;;;;;0.57;0.57;;;;;;;;;;6304721;28;20016;-74
2024/01/09 08:02:36;;;;;;;0.40;0.40;;;;;;;;;;6302623;28;20174;-74
2024/01/09 08:05:38;;;;;;;0.40;0.40;;;;;;;;;;6316010;28;20024;-74
2024/01/09 08:08:39;;;;;;;0.60;0.60;;;;;;;;;;6314835;28;20239;-74
2024/01/09 08:11:39;;;;;;;0.50;0.50;;;;;;;;;;6305235;28;20021;-73
2024/01/09 08:14:39;;;;;;;0.50;0.50;;;;;;;;;;6301767;28;20016;-71
2024/01/09 08:17:40;;;;;;;0.40;0.40;;;;;;;;;;6300718;28;20391;-69
2024/01/09 08:20:43;;;;;;;0.60;0.60;;;;;;;;;;6298385;28;20086;-70
2024/01/09 08:23:44;;;;;;;0.55;0.55;;;;;;;;;;6305115;28;20027;-70
2024/01/09 08:26:48;;;;;;;0.50;0.50;;;;;;;;;;6311573;28;20503;-73
2024/01/09 08:29:48;;;;;;;0.57;0.57;;;;;;;;;;6303410;28;20569;-74
2024/01/09 08:32:48;;;;;;;0.53;0.53;;;;;;;;;;6310089;28;20027;-73
2024/01/09 08:35:50;;;;;;;0.60;0.60;;;;;;;;;;6310613;28;20101;-73
2024/01/09 08:38:50;;;;;;;;;;;;;;;;;;6306577;28;20022;-73
2024/01/09 08:41:50;;;;;;;0.50;0.50;;;;;;;;;;6299497;28;20457;-73
2024/01/09 08:44:50;;;;;;;0.60;0.60;;;;;;;;;;6300807;28;20846;-73
2024/01/09 08:47:51;;;;;;;0.60;0.60;;;;;;;;;;6305803;28;20020;-73
2024/01/09 08:50:51;;;;;;;0.60;0.60;;;;;;;;;;6314540;28;20027;-73
2024/01/09 08:53:53;;;;;;;0.50;0.50;;;;;;;;;;6304508;28;20059;-73
2024/01/09 08:56:54;;;;;;;0.52;0.52;;;;;;;;;;6316182;28;20109;-73
2024/01/09 08:59:56;;;;;;;0.50;0.50;;;;;;;;;;6307742;28;20476;-73
2024/01/09 09:02:56;;;;;;;0.50;0.50;;;;;;;;;;6308645;28;20032;-73
2024/01/09 09:05:57;;;;;;;0.60;0.60;;;;;;;;;;6313976;28;20020;-73
2024/01/09 09:08:57;;;;;;;0.50;0.50;;;;;;;;;;6313326;28;20527;-73
2024/01/09 09:12:01;;;;;;;0.40;0.40;;;;;;;;;;6316738;28;20016;-73
2024/01/09 09:15:03;;;;;;;0.40;0.40;;;;;;;;;;6300648;28;20064;-73
2024/01/09 09:18:03;;;;;;;0.40;0.40;;;;;;;;;;6310807;28;20016;-73
2024/01/09 09:21:03;;;;;;;0.50;0.50;;;;;;;;;;6305232;28;20016;-74
2024/01/09 09:24:04;;;;;;;0.50;0.50;;;;;;;;;;6304798;28;20074;-69
2024/01/09 09:27:04;;;;;;;0.50;0.50;;;;;;;;;;6303843;28;20586;-71
2024/01/09 09:30:05;;;;;;;0.43;0.43;;;;;;;;;;6315095;28;20023;-70
2024/01/09 09:33:05;;;;;;;0.40;0.40;;;;;;;;;;6305530;28;20173;-70
2024/01/09 09:36:05;;;;;;;0.50;0.50;;;;;;;;;;6313959;28;20027;-73
2024/01/09 09:39:06;;;;;;;0.47;0.47;;;;;;;;;;6308365;28;20063;-73
2024/01/09 09:42:07;;;;;;;0.40;0.40;;;;;;;;;;6297799;28;20020;-73
2024/01/09 09:45:09;;;;;;;0.40;0.40;;;;;;;;;;6311924;28;20607;-73
2024/01/09 09:48:09;;;;;;;0.40;0.40;;;;;;;;;;6313481;28;20279;-73
2024/01/09 09:51:10;;;;;;;0.30;0.30;;;;;;;;;;6311049;28;20521;-73
2024/01/09 09:54:10;;;;;;;0.40;0.40;;;;;;;;;;6305955;28;20020;-73
2024/01/09 09:57:10;;;;;;;0.40;0.40;;;;;;;;;;6313213;28;20020;-74
2024/01/09 10:00:11;;;;;;;0.43;0.43;;;;;;;;;;6311357;28;20473;-74
2024/01/09 10:03:15;;;;;;;0.30;0.30;;;;;;;;;;6298540;28;20099;-74
2024/01/09 10:06:17;;;;;;;0.30;0.30;;;;;;;;;;6303288;28;20041;-74
2024/01/09 10:09:17;;;;;;;;;;;;;;;;;;6317083;28;20012;-74
2024/01/09 10:12:19;;;;;;;0.40;0.40;;;;;;;;;;6302253;28;20346;-74
2024/01/09 10:15:19;;;;;;;0.40;0.40;;;;;;;;;;6284230;28;20031;-74
2024/01/09 10:18:20;;;;;;;0.30;0.30;;;;;;;;;;6307040;28;20024;-74
2024/01/09 10:21:22;;;;;;;0.30;0.30;;;;;;;;;;6291217;28;20024;-74
2024/01/09 10:24:22;;;;;;;0.30;0.30;;;;;;;;;;6305403;28;20132;-74
2024/01/09 10:27:22;;;;;;;0.30;0.30;;;;;;;;;;6298166;28;20179;-74
2024/01/09 10:30:23;;;;;;;0.30;0.30;;;;;;;;;;6307003;28;20543;-74
2024/01/09 10:33:23;;;;;;;0.30;0.30;;;;;;;;;;6314515;28;20491;-73
2024/01/09 10:36:24;;;;;;;0.30;0.30;;;;;;;;;;6307873;28;20012;-73
2024/01/09 10:39:24;;;;;;;0.30;0.30;;;;;;;;;;6300746;28;20036;-73
2024/01/09 10:42:24;;;;;;;0.30;0.30;;;;;;;;;;6293991;28;20083;-73
2024/01/09 10:45:26;;;;;;;0.30;0.30;;;;;;;;;;6309299;28;20137;-73
2024/01/09 10:48:26;;;;;;;0.30;0.30;;;;;;;;;;6298981;28;20048;-73
2024/01/09 10:51:26;;;;;;;0.30;0.30;;;;;;;;;;6299343;28;20020;-73
2024/01/09 10:54:27;;;;;;;0.30;0.30;;;;;;;;;;6310163;28;20034;-72
2024/01/09 10:57:27;;;;;;;0.30;0.30;;;;;;;;;;6301168;28;20020;-72
2024/01/09 11:00:28;;;;;;;0.30;0.30;;;;;;;;;;6302507;28;20016;-72
2024/01/09 11:03:29;;;;;;;0.30;0.30;;;;;;;;;;6301783;28;20044;-72
2024/01/09 11:06:31;;;;;;;0.30;0.30;;;;;;;;;;6285080;28;20027;-72
2024/01/09 11:09:32;;;;;;;0.38;0.38;;;;;;;;;;6307882;28;20023;-72
2024/01/09 11:12:38;;;;;;;0.30;0.30;;;;;;;;;;6320001;28;20537;-71
2024/01/09 11:15:44;;;;;;;0.30;0.30;;;;;;;;;;6312210;28;20028;-72
2024/01/09 11:18:45;;;;;;;0.30;0.30;;;;;;;;;;6312180;28;20012;-72
2024/01/09 11:21:45;;;;;;;0.30;0.30;;;;;;;;;;6314214;28;20352;-73
2024/01/09 11:24:47;;;;;;;0.30;0.30;;;;;;;;;;6315414;28;20258;-72
2024/01/09 11:27:49;;;;;;;;;;;;;;;;;;6290139;28;20048;-72
2024/01/09 11:30:51;;;;;;;0.30;0.30;;;;;;;;;;6313392;28;20350;-72
2024/01/09 11:33:51;;;;;;;0.30;0.30;;;;;;;;;;6299530;28;20119;-72
2024/01/09 11:36:51;;;;;;;0.20;0.20;;;;;;;;;;6309682;28;20012;-72
2024/01/09 11:39:52;;;;;;;0.30;0.30;;;;;;;;;;6315075;28;20201;-73
2024/01/09 11:42:52;;;;;;;0.20;0.20;;;;;;;;;;6319932;28;20017;-73
2024/01/09 11:45:52;;;;;;;0.30;0.30;;;;;;;;;;6325287;28;20243;-71
2024/01/09 11:48:53;;;;;;;0.30;0.30;;;;;;;;;;6319897;28;20026;-72
2024/01/09 11:51:55;;;;;;;0.30;0.30;;;;;;;;;;6307370;28;20500;-72
2024/01/09 11:54:55;;;;;;;0.30;0.30;;;;;;;;;;6332464;28;20061;-72
2024/01/09 11:57:55;;;;;;;0.20;0.20;;;;;;;;;;6329430;28;20019;-72
2024/01/09 12:00:55;;;;;;;0.30;0.30;;;;;;;;;;6326113;28;20087;-72
2024/01/09 12:03:56;;;;;;;0.20;0.20;;;;;;;;;;6336706;28;20066;-72
2024/01/09 12:06:57;;;;;;;0.20;0.20;;;;;;;;;;6311608;28;20065;-72
2024/01/09 12:09:57;;;;;;;0.30;0.30;;;;;;;;;;6331931;28;20478;-72
2024/01/09 12:13:01;;;;;;;0.30;0.30;;;;;;;;;;6313336;28;20039;-72
2024/01/09 12:16:13;;;;;;;0.30;0.30;;;;;;;;;;6329518;28;20423;-73
2024/01/09 12:19:13;;;;;;;;;;;;;;;;;;6317558;28;20020;-73
2024/01/09 12:22:14;;;;;;;0.30;0.30;;;;;;;;;;6328411;28;19919;-73
2024/01/09 12:25:15;;;;;;;0.20;0.20;;;;;;;;;;6309304;28;20541;-71
2024/01/09 12:28:15;;;;;;;0.20;0.20;;;;;;;;;;6329424;28;20047;-71
2024/01/09 12:31:22;;;;;;;0.20;0.20;;;;;;;;;;6313440;28;20146;-72
2024/01/09 12:34:22;;;;;;;0.30;0.30;;;;;;;;;;6325683;28;20537;-72
2024/01/09 12:37:24;;;;;;;0.30;0.30;;;;;;;;;;6331872;28;20040;-72
2024/01/09 12:40:24;;;;;;;0.30;0.30;;;;;;;;;;6330665;28;20007;-72
2024/01/09 12:43:25;;;;;;;0.30;0.30;;;;;;;;;;6323820;28;20074;-72
2024/01/09 12:46:30;;;;;;;0.30;0.30;;;;;;;;;;6306770;28;20020;-73
2024/01/09 12:49:30;;;;;;;0.30;0.30;;;;;;;;;;6299449;28;20024;-73
2024/01/09 12:52:30;;;;;;;0.30;0.30;;;;;;;;;;6322082;28;20111;-73
2024/01/09 12:55:31;;;;;;;0.30;0.30;;;;;;;;;;6304637;28;20119;-73
2024/01/09 12:58:32;;;;;;;0.30;0.30;;;;;;;;;;6303329;28;20405;-72
2024/01/09 13:01:32;;;;;;;0.30;0.30;;;;;;;;;;6305038;28;20025;-73
2024/01/09 13:04:32;;;;;;;0.30;0.30;;;;;;;;;;6287963;28;20142;-73
2024/01/09 13:07:34;;;;;;;0.20;0.20;;;;;;;;;;6314713;28;20106;-72
2024/01/09 13:10:34;;;;;;;0.25;0.25;;;;;;;;;;6310354;28;20023;-73
2024/01/09 13:13:35;;;;;;;0.30;0.30;;;;;;;;;;6309762;28;20046;-73
2024/01/09 13:16:35;;;;;;;0.20;0.20;;;;;;;;;;6317558;28;20052;-73
2024/01/09 13:19:35;;;;;;;0.30;0.30;;;;;;;;;;6317454;28;20514;-73
2024/01/09 13:22:36;;;;;;;0.30;0.30;;;;;;;;;;6323532;28;20055;-74
2024/01/09 13:25:36;;;;;;;0.30;0.30;;;;;;;;;;6316206;28;20097;-73
2024/01/09 13:28:36;;;;;;;0.30;0.30;;;;;;;;;;6303889;28;20036;-74
2024/01/09 13:31:36;;;;;;;0.30;0.30;;;;;;;;;;6303683;28;20032;-73
2024/01/09 13:34:36;;;;;;;0.30;0.30;;;;;;;;;;6326347;28;20347;-74
2024/01/09 13:37:37;;;;;;;0.27;0.27;;;;;;;;;;6316156;28;20475;-74
2024/01/09 13:40:37;;;;;;;0.30;0.30;;;;;;;;;;6312941;28;20494;-74
2024/01/09 13:43:39;;;;;;;0.30;0.30;;;;;;;;;;6313587;28;20025;-74
2024/01/09 13:46:39;;;;;;;0.30;0.30;;;;;;;;;;6322385;28;20455;-74
2024/01/09 13:49:39;;;;;;;0.20;0.20;;;;;;;;;;6299363;28;20074;-74
2024/01/09 13:52:39;;;;;;;0.30;0.30;;;;;;;;;;6315579;28;20035;-74
2024/01/09 13:55:40;;;;;;;0.20;0.20;;;;;;;;;;6322047;28;20023;-74
2024/01/09 13:58:41;;;;;;;0.30;0.30;;;;;;;;;;6315117;28;20020;-75
2024/01/09 14:01:43;;;;;;;0.30;0.30;;;;;;;;;;6331332;28;20089;-74
2024/01/09 14:04:43;;;;;;;0.30;0.30;;;;;;;;;;6316205;28;20261;-75
2024/01/09 14:07:44;;;;;;;0.30;0.30;;;;;;;;;;6317990;28;20023;-75
2024/01/09 14:10:44;;;;;;;0.30;0.30;;;;;;;;;;6307440;28;20035;-75
2024/01/09 14:13:44;;;;;;;0.30;0.30;;;;;;;;;;6320264;28;20051;-75
2024/01/09 14:16:44;;;;;;;0.40;0.40;;;;;;;;;;6307027;28;20024;-73
2024/01/09 14:19:45;;;;;;;0.30;0.30;;;;;;;;;;6321746;28;20023;-73
2024/01/09 14:22:45;;;;;;;0.30;0.30;;;;;;;;;;6303864;28;20059;-74
2024/01/09 14:25:45;;;;;;;0.30;0.30;;;;;;;;;;6322847;28;20066;-76
2024/01/09 14:28:45;;;;;;;0.40;0.40;;;;;;;;;;6326327;28;20035;-76
2024/01/09 14:31:46;;;;;;;0.40;0.40;;;;;;;;;;6331910;28;20072;-75
2024/01/09 14:34:46;;;;;;;0.40;0.40;;;;;;;;;;6323118;28;20351;-75
2024/01/09 14:37:46;;;;;;;0.30;0.30;;;;;;;;;;6304892;28;20414;-76
2024/01/09 14:40:47;;;;;;;0.50;0.50;;;;;;;;;;6292421;28;20008;-76
2024/01/09 14:43:48;;;;;;;0.40;0.40;;;;;;;;;;6310316;28;20008;-76
2024/01/09 14:46:48;;;;;;;0.40;0.40;;;;;;;;;;6301051;28;20012;-76
2024/01/09 14:49:48;;;;;;;0.40;0.40;;;;;;;;;;6315321;28;20078;-76
2024/01/09 14:52:49;;;;;;;0.50;0.50;;;;;;;;;;6316873;28;20012;-76
2024/01/09 14:55:49;;;;;;;0.40;0.40;;;;;;;;;;6317876;28;20039;-76
2024/01/09 14:58:49;;;;;;;0.40;0.40;;;;;;;;;;6320633;28;20417;-77
2024/01/09 15:01:51;;;;;;;0.40;0.40;;;;;;;;;;6334623;28;20026;-77
2024/01/09 15:04:51;;;;;;;0.50;0.50;;;;;;;;;;6322044;28;20466;-76
2024/01/09 15:07:52;;;;;;;0.50;0.50;;;;;;;;;;6324870;28;20026;-77
2024/01/09 15:10:53;;;;;;;0.40;0.40;;;;;;;;;;6325163;28;20009;-77
2024/01/09 15:13:54;;;;;;;0.40;0.40;;;;;;;;;;6297101;28;20061;-76
2024/01/09 15:16:54;;;;;;;0.40;0.40;;;;;;;;;;6327386;28;20507;-76
2024/01/09 15:19:54;;;;;;;0.40;0.40;;;;;;;;;;6304348;28;20476;-76
2024/01/09 15:22:55;;;;;;;0.50;0.50;;;;;;;;;;6322370;28;20020;-76
2024/01/09 15:25:55;;;;;;;0.43;0.43;;;;;;;;;;6328964;28;20043;-76
2024/01/09 15:28:55;;;;;;;0.40;0.40;;;;;;;;;;6333279;28;20051;-76
2024/01/09 15:31:56;;;;;;;0.57;0.57;;;;;;;;;;6332801;28;20016;-77
2024/01/09 15:34:56;;;;;;;0.40;0.40;;;;;;;;;;6330351;28;20106;-71
2024/01/09 15:37:58;;;;;;;0.50;0.50;;;;;;;;;;6307674;28;20024;-70
2024/01/09 15:40:58;;;;;;;0.40;0.40;;;;;;;;;;6322428;28;20027;-70
2024/01/09 15:43:59;;;;;;;0.50;0.50;;;;;;;;;;6331205;28;20490;-71
2024/01/09 15:47:00;;;;;;;0.60;0.60;;;;;;;;;;6320403;28;20020;-71
2024/01/09 15:50:00;;;;;;;0.60;0.60;;;;;;;;;;6324571;28;20094;-71
2024/01/09 15:53:00;;;;;;;0.50;0.50;;;;;;;;;;6310419;28;20305;-76
2024/01/09 15:56:01;;;;;;;0.50;0.50;;;;;;;;;;6326660;28;20395;-75
2024/01/09 15:59:01;;;;;;;0.60;0.60;;;;;;;;;;6324883;28;20812;-75
2024/01/09 16:02:01;;;;;;;0.67;0.67;;;;;;;;;;6301050;28;20098;-70
2024/01/09 16:05:01;;;;;;;0.60;0.60;;;;;;;;;;6306887;28;20381;-70
2024/01/09 16:08:02;;;;;;;0.60;0.60;;;;;;;;;;6320998;28;20135;-70
2024/01/09 16:11:02;;;;;;;0.67;0.67;;;;;;;;;;6326293;28;20354;-70
2024/01/09 16:14:03;;;;;;;0.50;0.50;;;;;;;;;;6325129;28;20023;-71
2024/01/09 16:17:03;;;;;;;0.70;0.70;;;;;;;;;;6332938;28;20026;-70
2024/01/09 16:20:04;;;;;;;0.50;0.50;;;;;;;;;;6320041;28;20061;-70
2024/01/09 16:23:04;;;;;;;0.60;0.60;;;;;;;;;;6311690;28;20023;-71
2024/01/09 16:26:05;;;;;;;0.50;0.50;;;;;;;;;;6325479;28;20059;-70
2024/01/09 16:29:06;;;;;;;;;;;;;;;;;;6305377;28;20039;-71
2024/01/09 16:32:06;;;;;;;0.60;0.60;;;;;;;;;;6316934;28;19908;-71
2024/01/09 16:35:06;;;;;;;0.60;0.60;;;;;;;;;;6320145;28;20027;-71
2024/01/09 16:38:07;;;;;;;0.60;0.60;;;;;;;;;;6330682;28;20015;-71
2024/01/09 16:41:07;;;;;;;0.60;0.60;;;;;;;;;;6333412;28;20011;-71
2024/01/09 16:44:07;;;;;;;0.67;0.67;;;;;;;;;;6320209;28;20028;-71
2024/01/09 16:47:08;;;;;;;0.70;0.70;;;;;;;;;;6321339;28;20030;-71
2024/01/09 16:50:09;;;;;;;0.60;0.60;;;;;;;;;;6324372;28;20496;-71
2024/01/09 16:53:09;;;;;;;0.50;0.50;;;;;;;;;;6331010;28;20091;-70
2024/01/09 16:56:16;;;;;;;0.60;0.60;;;;;;;;;;6321767;28;20016;-70
2024/01/09 16:59:18;;;;;;;0.60;0.60;;;;;;;;;;6316994;28;20555;-70
2024/01/09 17:02:19;;;;;;;0.60;0.60;;;;;;;;;;6324778;28;20111;-70
2024/01/09 17:05:20;;;;;;;0.70;0.70;;;;;;;;;;6310626;28;20100;-70
2024/01/09 17:08:20;;;;;;;0.80;0.80;;;;;;;;;;6323357;28;20041;-70
2024/01/09 17:11:20;;;;;;;0.50;0.50;;;;;;;;;;6334651;28;20038;-71
2024/01/09 17:14:21;;;;;;;0.70;0.70;;;;;;;;;;6331339;28;20026;-70
2024/01/09 17:17:21;;;;;;;0.60;0.60;;;;;;;;;;6331613;28;20269;-70
2024/01/09 17:20:22;;;;;;;0.60;0.60;;;;;;;;;;6327533;28;20124;-70
2024/01/09 17:23:22;;;;;;;0.50;0.50;;;;;;;;;;6325524;28;20069;-71
2024/01/09 17:26:23;;;;;;;0.53;0.53;;;;;;;;;;6330486;28;20040;-70
2024/01/09 17:29:24;;;;;;;0.60;0.60;;;;;;;;;;6323675;28;20035;-71
2024/01/09 17:32:26;;;;;;;0.60;0.60;;;;;;;;;;6318595;28;20059;-70
2024/01/09 17:35:26;;;;;;;0.70;0.70;;;;;;;;;;6312064;28;20024;-70
2024/01/09 17:38:27;;;;;;;0.77;0.77;;;;;;;;;;6304074;28;20017;-71
2024/01/09 17:41:27;;;;;;;0.60;0.60;;;;;;;;;;6289565;28;20073;-70
2024/01/09 17:44:27;;;;;;;0.60;0.60;;;;;;;;;;6314320;28;20023;-70
2024/01/09 17:47:28;;;;;;;0.60;0.60;;;;;;;;;;6312909;28;20458;-70
2024/01/09 17:50:28;;;;;;;0.70;0.70;;;;;;;;;;6300066;28;20031;-70
2024/01/09 17:53:28;;;;;;;0.60;0.60;;;;;;;;;;6306637;28;20558;-70
2024/01/09 17:56:34;;;;;;;0.90;0.90;;;;;;;;;;6305014;28;20097;-70
2024/01/09 17:59:35;;;;;;;0.70;0.70;;;;;;;;;;6290952;28;20024;-70
2024/01/09 18:02:38;;;;;;;0.60;0.60;;;;;;;;;;6314689;28;20019;-70
2024/01/09 18:05:38;;;;;;;0.70;0.70;;;;;;;;;;6333071;28;20027;-70
2024/01/09 18:08:38;;;;;;;0.70;0.70;;;;;;;;;;6317930;28;20011;-70
2024/01/09 18:11:39;;;;;;;0.50;0.50;;;;;;;;;;6326274;28;20040;-70
2024/01/09 18:14:40;;;;;;;0.67;0.67;;;;;;;;;;6297100;28;20017;-71
2024/01/09 18:17:41;;;;;;;0.63;0.63;;;;;;;;;;6318841;28;20600;-70
2024/01/09 18:20:41;;;;;;;0.63;0.63;;;;;;;;;;6320137;28;20012;-70
2024/01/09 18:23:42;;;;;;;0.70;0.70;;;;;;;;;;6325013;28;20023;-70